San Isidro, Texas
Current Conditions -  °F | °C
As of 12:35 AM on Tuesday 21 Oct 2014 (Local Time) from KEBG Reporting Station
Clear Clear  
Wind Chill: 71°   Ceiling: Unl
Heat Index: 71°   Visibility: 7mi
Dew Point: 68°   Wind: 0mph
Humidity: 90%   Direction: NA
Pressure: 29.96"   Gusts: NA
Location:  26.72°N, 98.45°W
Report Text: KEBG 210535Z AUTO 00000KT 7SM CLR 22/20 A2996 RMK AO2 T02190202
Loading
Personal Weather Stations






























Interactive Weather Map
Tropical Storm Tracking
New forecast layout! Learn more

10-Day Weather Forecast

Advertisements
Track Severe Weather on mobile